createdAt,value
2022-11-08T00:02:03.243Z,100266.16
2022-11-08T00:05:28.209Z,100268.59
2022-11-08T00:08:48.008Z,100263.78
2022-11-08T00:12:07.801Z,100261.88
2022-11-08T00:15:11.007Z,100267.06
2022-11-08T00:18:13.522Z,100264.53
2022-11-08T00:21:17.342Z,100261.03
2022-11-08T00:24:19.840Z,100271.00
2022-11-08T00:27:24.347Z,100270.13
2022-11-08T00:30:26.950Z,100264.56
2022-11-08T00:33:29.420Z,100273.41
2022-11-08T00:36:33.239Z,100272.03
2022-11-08T00:39:36.041Z,100273.84
2022-11-08T00:42:38.507Z,100274.66
2022-11-08T00:45:41.049Z,100279.50
2022-11-08T00:48:43.532Z,100281.47
2022-11-08T00:51:47.382Z,100281.28
2022-11-08T00:54:49.847Z,100271.94
2022-11-08T00:58:00.541Z,100272.78
2022-11-08T01:01:10.760Z,100273.06
2022-11-08T01:04:15.603Z,100280.56
2022-11-08T01:07:19.439Z,100285.19
2022-11-08T01:10:21.904Z,100271.53
2022-11-08T01:13:24.389Z,100272.63
2022-11-08T01:16:28.943Z,100276.16
2022-11-08T01:19:31.429Z,100267.81
2022-11-08T01:22:35.295Z,100266.69
2022-11-08T01:25:38.708Z,100270.75
2022-11-08T01:28:41.262Z,100271.69
2022-11-08T01:31:43.823Z,100269.22
2022-11-08T01:34:46.269Z,100266.09
2022-11-08T01:37:50.077Z,100263.75
2022-11-08T01:40:52.803Z,100257.22
2022-11-08T01:43:55.982Z,100256.28
2022-11-08T01:46:58.465Z,100260.53
2022-11-08T01:50:02.996Z,100249.94
2022-11-08T01:53:06.794Z,100253.34
2022-11-08T01:56:10.929Z,100249.00
2022-11-08T01:59:17.327Z,100240.38
2022-11-08T02:02:20.849Z,100251.44
2022-11-08T02:05:27.110Z,100253.34
2022-11-08T02:08:35.467Z,100254.56
2022-11-08T02:11:38.029Z,100258.25
2022-11-08T02:14:40.865Z,100258.44
2022-11-08T02:17:43.563Z,100252.94
2022-11-08T02:20:52.757Z,100254.06
2022-11-08T02:23:59.347Z,100253.91
2022-11-08T06:46:03.097Z,100273.38
2022-11-08T06:49:05.576Z,100280.66
2022-11-08T06:52:08.300Z,100287.31
2022-11-08T06:55:10.773Z,100287.03
2022-11-08T06:58:13.348Z,100289.09
2022-11-08T07:01:17.193Z,100296.16
2022-11-08T07:04:19.705Z,100293.66
2022-11-08T07:07:22.307Z,100300.78
2022-11-08T07:10:26.700Z,100300.66
2022-11-08T07:13:29.189Z,100307.84
2022-11-08T07:16:33.079Z,100307.03
2022-11-08T07:19:35.666Z,100308.78
2022-11-08T07:22:38.201Z,100297.47
2022-11-08T07:25:40.886Z,100300.53
2022-11-08T07:28:43.382Z,100297.69
2022-11-08T07:31:47.227Z,100290.50
2022-11-08T07:34:49.734Z,100294.03
2022-11-08T07:37:52.729Z,100298.81
2022-11-08T07:40:59.055Z,100304.88
2022-11-08T07:44:01.576Z,100297.97
2022-11-08T07:47:05.502Z,100301.88
2022-11-08T07:50:09.264Z,100299.59
2022-11-08T07:53:12.083Z,100303.72
2022-11-08T07:56:15.604Z,100306.56
2022-11-08T07:59:18.313Z,100301.72
2022-11-08T08:02:23.965Z,100300.13
2022-11-08T08:05:27.467Z,100296.13
2022-11-08T08:08:33.547Z,100299.72
2022-11-08T08:11:36.020Z,100298.19
2022-11-08T08:14:38.528Z,100294.31
2022-11-08T08:17:42.342Z,100303.94
2022-11-08T08:20:44.861Z,100295.97
2022-11-08T08:23:47.369Z,100301.06
2022-11-08T08:26:49.877Z,100289.56
2022-11-08T08:36:21.510Z,100295.16
2022-11-08T08:39:23.984Z,100296.09
2022-11-08T08:42:26.456Z,100286.34
2022-11-08T08:45:29.256Z,100279.09
2022-11-08T08:48:32.795Z,100282.75
2022-11-08T08:51:36.617Z,100283.13
2022-11-08T08:54:39.116Z,100274.44
2022-11-08T08:57:45.095Z,100275.56
2022-11-08T09:04:10.405Z,100275.53
2022-11-08T09:07:14.380Z,100280.63
2022-11-08T09:10:17.133Z,100284.00
2022-11-08T09:13:19.877Z,100288.28
2022-11-08T09:16:22.620Z,100275.03
2022-11-08T09:19:25.148Z,100281.44
2022-11-08T09:22:28.976Z,100282.38
2022-11-08T09:25:31.640Z,100283.53
2022-11-08T09:28:35.569Z,100283.41
2022-11-08T09:31:38.153Z,100280.69
2022-11-08T09:34:40.641Z,100273.38
2022-11-08T09:37:47.179Z,100282.59
2022-11-08T09:41:04.945Z,100280.63
2022-11-08T09:44:22.700Z,100273.09
2022-11-08T09:47:28.016Z,100266.31
2022-11-08T09:50:38.347Z,100270.91
2022-11-08T09:53:55.849Z,100274.53
2022-11-08T09:56:59.348Z,100265.34
2022-11-08T10:00:05.544Z,100259.13
2022-11-08T10:03:14.326Z,100253.41
2022-11-08T10:06:43.932Z,100250.50
2022-11-08T10:10:12.825Z,100254.00
2022-11-08T10:13:26.697Z,100249.13
2022-11-08T10:16:38.090Z,100246.06
2022-11-08T10:19:57.854Z,100237.63
2022-11-08T10:23:14.922Z,100243.50
2022-11-08T10:26:26.658Z,100240.59
2022-11-08T10:29:35.252Z,100234.53
2022-11-08T10:32:38.083Z,100234.38
2022-11-08T10:35:45.230Z,100235.13
2022-11-08T10:38:56.295Z,100237.97
2022-11-08T10:42:06.957Z,100238.31
2022-11-08T10:45:11.028Z,100232.19
2022-11-08T10:48:13.798Z,100225.13
2022-11-08T10:51:16.328Z,100235.00
2022-11-08T10:54:41.611Z,100229.88
2022-11-08T10:57:45.751Z,100227.66
2022-11-08T11:01:01.060Z,100221.84
2022-11-08T11:04:25.823Z,100208.63
2022-11-08T11:07:32.349Z,100210.41
2022-11-08T11:10:37.156Z,100208.13
2022-11-08T11:13:40.950Z,100203.41
2022-11-08T11:16:56.825Z,100213.69
2022-11-08T11:19:59.984Z,100210.38
2022-11-08T11:23:02.697Z,100199.72
2022-11-08T11:26:07.280Z,100199.47
2022-11-08T11:29:20.098Z,100205.06
2022-11-08T11:32:26.111Z,100195.44
2022-11-08T11:35:35.559Z,100194.09
2022-11-08T11:38:45.026Z,100193.25
2022-11-08T11:41:53.909Z,100192.22
2022-11-08T11:45:07.365Z,100190.28
2022-11-08T11:48:16.351Z,100185.25
2022-11-08T11:51:19.256Z,100187.13
2022-11-08T11:54:31.345Z,100194.84
2022-11-08T11:57:38.733Z,100181.94
2022-11-08T12:00:52.093Z,100166.97
2022-11-08T12:04:14.112Z,100173.00
2022-11-08T12:07:21.542Z,100171.47
2022-11-08T12:10:32.028Z,100157.81
2022-11-08T12:13:46.966Z,100159.25
2022-11-08T12:17:09.341Z,100151.47
2022-11-08T12:20:28.268Z,100157.28
2022-11-08T12:23:43.264Z,100141.22
2022-11-08T12:26:54.124Z,100149.28
2022-11-08T12:30:04.315Z,100140.31
2022-11-08T12:33:27.927Z,100133.38
2022-11-08T12:36:36.503Z,100129.84
2022-11-08T12:39:45.213Z,100124.22
2022-11-08T12:43:05.869Z,100136.09
2022-11-08T12:46:12.952Z,100132.06
2022-11-08T12:49:27.038Z,100121.81
2022-11-08T12:52:46.151Z,100119.59
2022-11-08T12:55:49.708Z,100118.47
2022-11-08T12:58:53.847Z,100116.94
2022-11-08T13:01:57.743Z,100107.09
2022-11-08T13:05:10.571Z,100101.16
2022-11-08T13:08:18.647Z,100087.09
2022-11-08T13:11:25.715Z,100082.72
2022-11-08T13:14:28.948Z,100083.31
2022-11-08T13:17:32.211Z,100083.41
2022-11-08T13:20:44.805Z,100077.63
2022-11-08T13:23:47.515Z,100075.22
2022-11-08T13:26:50.225Z,100071.84
2022-11-08T13:29:53.721Z,100060.91
2022-11-08T13:33:02.114Z,100054.28
2022-11-08T13:36:23.107Z,100057.94
2022-11-08T13:39:47.247Z,100042.47
2022-11-08T13:43:20.264Z,100039.81
2022-11-08T13:46:48.340Z,100056.69
2022-11-08T13:49:50.828Z,100053.78
2022-11-08T13:53:06.697Z,100048.28
2022-11-08T13:56:45.039Z,100052.88
2022-11-08T13:59:58.101Z,100046.78
2022-11-08T14:03:01.419Z,100046.59
2022-11-08T14:06:14.878Z,100045.25
2022-11-08T14:09:30.751Z,100052.31
2022-11-08T14:12:42.375Z,100045.09
2022-11-08T14:15:52.236Z,100045.25
2022-11-08T14:18:54.715Z,100032.97
2022-11-08T14:21:58.850Z,100034.03
2022-11-08T14:25:18.433Z,100025.91
2022-11-08T14:28:26.620Z,100032.34
2022-11-08T14:31:31.170Z,100032.13
2022-11-08T14:34:35.634Z,100026.53
2022-11-08T14:37:38.547Z,100029.06
2022-11-08T14:40:49.816Z,100037.44
2022-11-08T14:43:55.035Z,100026.63
2022-11-08T14:46:59.344Z,100029.19
2022-11-08T14:50:01.985Z,100022.19
2022-11-08T14:53:21.700Z,100019.34
2022-11-08T14:56:27.120Z,100021.69
2022-11-08T14:59:29.619Z,100024.28
2022-11-08T15:02:32.988Z,100026.16
2022-11-08T15:05:40.372Z,100024.22
2022-11-08T15:08:51.987Z,100008.97
2022-11-08T15:11:59.208Z,100010.38
2022-11-08T15:15:02.542Z,100001.34
2022-11-08T15:18:17.285Z,99996.53
2022-11-08T15:21:29.049Z,99996.59
2022-11-08T15:24:37.446Z,100002.81
2022-11-08T15:27:47.995Z,99992.25
2022-11-08T15:30:56.627Z,100000.56
2022-11-08T15:33:59.421Z,100003.84
2022-11-08T15:37:01.898Z,100002.41
2022-11-08T15:40:06.674Z,99994.31
2022-11-08T15:43:35.001Z,100001.34
2022-11-08T15:46:38.206Z,100001.22
2022-11-08T15:49:45.133Z,100004.03
2022-11-08T15:52:49.726Z,99995.31
2022-11-08T15:55:55.303Z,100003.81
2022-11-08T15:58:59.134Z,100003.31
2022-11-08T16:02:03.464Z,99987.25
2022-11-08T16:05:15.813Z,99994.75
2022-11-08T16:08:20.929Z,99994.28
2022-11-08T16:11:24.654Z,99993.09
2022-11-08T16:14:28.438Z,99996.34
2022-11-08T16:17:30.926Z,99989.72
2022-11-08T16:20:35.873Z,99987.44
2022-11-08T16:23:38.519Z,99985.84
2022-11-08T16:26:42.612Z,99983.19
2022-11-08T16:29:46.425Z,99981.28
2022-11-08T16:32:49.549Z,99983.09
2022-11-08T16:35:54.688Z,99981.50
2022-11-08T16:38:59.109Z,99978.72
2022-11-08T16:42:01.565Z,99974.88
2022-11-08T16:45:06.038Z,99975.72
2022-11-08T16:48:08.700Z,99965.91
2022-11-08T16:51:17.164Z,99965.06
2022-11-08T16:54:23.892Z,99974.63
2022-11-08T16:57:34.800Z,99973.66
2022-11-08T17:00:40.726Z,99975.97
2022-11-08T17:03:43.192Z,99974.16
2022-11-08T17:06:45.788Z,99971.00
2022-11-08T17:09:48.323Z,99969.66
2022-11-08T17:12:51.201Z,99970.50
2022-11-08T17:15:55.881Z,99977.28
2022-11-08T17:18:58.641Z,99976.44
2022-11-08T17:22:01.178Z,99982.63
2022-11-08T17:25:03.760Z,99983.09
2022-11-08T17:28:06.311Z,99978.63
2022-11-08T17:31:12.142Z,99975.97
2022-11-08T17:34:14.744Z,99977.88
2022-11-08T17:37:17.782Z,99975.84
2022-11-08T17:40:21.081Z,99978.50
2022-11-08T17:43:23.574Z,99978.97
2022-11-08T17:46:27.360Z,99970.28
2022-11-08T17:49:29.850Z,99973.16
2022-11-08T17:52:32.467Z,99982.84
2022-11-08T17:55:34.941Z,99972.81
2022-11-08T17:58:38.419Z,99982.00
2022-11-08T18:01:42.603Z,99979.69
2022-11-08T18:04:45.265Z,99976.66
2022-11-08T18:07:48.024Z,99972.81
2022-11-08T18:10:51.441Z,99969.78
2022-11-08T18:13:54.145Z,99968.94
2022-11-08T18:16:59.741Z,99985.63
2022-11-08T18:20:02.364Z,99980.44
2022-11-08T18:23:04.995Z,99978.22
2022-11-08T18:26:07.921Z,99974.56
2022-11-08T18:29:10.616Z,99970.69
2022-11-08T18:32:14.674Z,99978.53
2022-11-08T18:35:17.384Z,99976.56
2022-11-08T18:38:19.992Z,99970.88
2022-11-08T18:41:25.194Z,99975.22
2022-11-08T18:44:27.814Z,99974.66
2022-11-08T18:47:32.028Z,99967.25
2022-11-08T18:50:34.872Z,99969.81
2022-11-08T18:53:37.868Z,99956.41
2022-11-08T18:56:40.428Z,99950.09
2022-11-08T18:59:42.946Z,99958.31
2022-11-08T19:02:46.835Z,99969.81
2022-11-08T19:05:49.484Z,99964.38
2022-11-08T19:08:52.044Z,99966.91
2022-11-08T19:11:54.611Z,99961.59
2022-11-08T19:14:57.187Z,99952.91
2022-11-08T19:18:01.051Z,99966.56
2022-11-08T19:21:05.271Z,99971.91
2022-11-08T19:24:10.861Z,99969.84
2022-11-08T19:27:13.399Z,99966.72
2022-11-08T19:30:16.052Z,99973.84
2022-11-08T19:33:20.491Z,99979.03
2022-11-08T19:36:25.701Z,99976.88
2022-11-08T19:39:28.517Z,99975.41
2022-11-08T19:42:31.234Z,99964.06
2022-11-08T19:45:33.859Z,99963.94
2022-11-08T19:48:40.006Z,99965.63
2022-11-08T19:51:42.568Z,99963.47
2022-11-08T19:54:45.824Z,99962.47
2022-11-08T19:57:48.337Z,99955.97
2022-11-08T20:00:50.818Z,99954.13
2022-11-08T20:03:54.883Z,99962.25
2022-11-08T20:06:57.599Z,99962.38
2022-11-08T20:10:00.226Z,99963.81
2022-11-08T20:13:02.844Z,99956.44
2022-11-08T20:16:13.059Z,99956.16
2022-11-08T20:19:17.865Z,99951.59
2022-11-08T20:22:20.382Z,99945.31
2022-11-08T20:25:23.059Z,99952.56
2022-11-08T20:28:25.844Z,99939.75
2022-11-08T20:31:28.603Z,99942.16
2022-11-08T20:34:38.655Z,99934.53
2022-11-08T20:37:41.270Z,99922.00
2022-11-08T20:40:44.123Z,99911.56
2022-11-08T20:43:47.826Z,99925.72
2022-11-08T20:46:51.164Z,99934.66
2022-11-08T20:49:55.072Z,99934.53
2022-11-08T20:52:57.620Z,99927.88
2022-11-08T20:56:01.805Z,99923.31
2022-11-08T20:59:04.695Z,99929.84
2022-11-08T21:02:07.281Z,99938.66
2022-11-08T21:05:11.513Z,99937.69
2022-11-08T21:08:57.884Z,99943.34
2022-11-08T21:11:36.749Z,99936.50
2022-11-08T21:14:39.447Z,99963.22
2022-11-08T21:17:42.119Z,99961.88
2022-11-08T21:20:46.242Z,99953.28
2022-11-08T21:23:49.235Z,99943.50
2022-11-08T21:26:51.912Z,99947.13
2022-11-08T21:29:54.622Z,99946.66
2022-11-08T21:32:57.933Z,99954.13
2022-11-08T21:36:02.224Z,99944.97
2022-11-08T21:39:04.936Z,99944.22
2022-11-08T21:42:07.627Z,99948.34
2022-11-08T21:45:11.268Z,99941.22
2022-11-08T21:48:15.405Z,99946.31
2022-11-08T21:51:19.644Z,99947.72
2022-11-08T21:54:22.650Z,99954.50
2022-11-08T21:57:25.298Z,99950.38
2022-11-08T22:00:28.343Z,99953.91
2022-11-08T22:03:30.950Z,99952.84
2022-11-08T22:06:36.124Z,99950.53
2022-11-08T22:09:38.994Z,99948.72
2022-11-08T22:12:42.253Z,99960.78
2022-11-08T22:15:45.253Z,99946.66
2022-11-08T22:19:04.061Z,99955.69
2022-11-08T22:22:09.271Z,99953.50
2022-11-08T22:25:11.916Z,99954.84
2022-11-08T22:28:14.508Z,99954.75
2022-11-08T22:31:17.165Z,99957.16
2022-11-08T22:34:19.879Z,99962.72
2022-11-08T22:37:23.914Z,99960.44
2022-11-08T22:40:26.509Z,99961.63
2022-11-08T22:43:29.336Z,99950.97
2022-11-08T22:46:31.936Z,99946.28
2022-11-08T22:49:34.551Z,99952.44
2022-11-08T22:52:38.462Z,99953.28
2022-11-08T22:55:41.064Z,99950.00
2022-11-08T22:58:43.652Z,99950.28
2022-11-08T23:01:46.542Z,99944.09
2022-11-08T23:04:49.149Z,99951.09
2022-11-08T23:07:53.103Z,99948.69
2022-11-08T23:11:09.687Z,99949.53
2022-11-08T23:14:36.453Z,99951.47
2022-11-08T23:17:39.680Z,99953.50
2022-11-08T23:21:00.094Z,99957.41
2022-11-08T23:24:22.145Z,99956.16
2022-11-08T23:27:43.056Z,99961.13
2022-11-08T23:31:11.742Z,99959.69
2022-11-08T23:34:14.377Z,99957.38
2022-11-08T23:37:16.975Z,99949.28
2022-11-08T23:40:39.024Z,99944.09
2022-11-08T23:43:58.936Z,99947.47
2022-11-08T23:47:02.605Z,99947.81
2022-11-08T23:50:05.790Z,99949.88
2022-11-08T23:53:08.400Z,99949.75
2022-11-08T23:56:19.986Z,99953.75
2022-11-08T23:59:22.478Z,99950.34
